sensor_id;sensor_type;location;lat;lon;timestamp;P1;durP1;ratioP1;P2;durP2;ratioP2
4464;SDS011;2245;48.136;13.428;2022-10-16T00:02:26;5.50;;;1.27;;
4464;SDS011;2245;48.136;13.428;2022-10-16T00:04:55;1.13;;;1.10;;
4464;SDS011;2245;48.136;13.428;2022-10-16T00:07:23;1.47;;;1.37;;
4464;SDS011;2245;48.136;13.428;2022-10-16T00:09:56;2.83;;;1.43;;
4464;SDS011;2245;48.136;13.428;2022-10-16T00:12:23;1.53;;;1.20;;
4464;SDS011;2245;48.136;13.428;2022-10-16T00:14:50;1.87;;;1.37;;
4464;SDS011;2245;48.136;13.428;2022-10-16T00:17:23;2.73;;;1.73;;
4464;SDS011;2245;48.136;13.428;2022-10-16T00:19:52;2.20;;;1.80;;
4464;SDS011;2245;48.136;13.428;2022-10-16T00:22:26;2.10;;;1.80;;
4464;SDS011;2245;48.136;13.428;2022-10-16T00:24:58;2.20;;;2.00;;
4464;SDS011;2245;48.136;13.428;2022-10-16T00:27:26;1.40;;;1.27;;
4464;SDS011;2245;48.136;13.428;2022-10-16T00:29:57;2.13;;;1.20;;
4464;SDS011;2245;48.136;13.428;2022-10-16T00:32:36;2.40;;;1.63;;
4464;SDS011;2245;48.136;13.428;2022-10-16T00:35:05;1.60;;;1.53;;
4464;SDS011;2245;48.136;13.428;2022-10-16T00:37:39;1.50;;;1.40;;
4464;SDS011;2245;48.136;13.428;2022-10-16T00:40:12;1.10;;;1.10;;
4464;SDS011;2245;48.136;13.428;2022-10-16T00:42:41;2.33;;;1.40;;
4464;SDS011;2245;48.136;13.428;2022-10-16T00:45:14;3.00;;;2.13;;
4464;SDS011;2245;48.136;13.428;2022-10-16T00:47:49;2.30;;;1.03;;
4464;SDS011;2245;48.136;13.428;2022-10-16T00:50:27;1.50;;;1.13;;
4464;SDS011;2245;48.136;13.428;2022-10-16T00:53:02;1.10;;;1.10;;
4464;SDS011;2245;48.136;13.428;2022-10-16T00:55:32;4.13;;;2.30;;
4464;SDS011;2245;48.136;13.428;2022-10-16T00:58:02;1.53;;;1.43;;
4464;SDS011;2245;48.136;13.428;2022-10-16T01:00:30;3.90;;;1.80;;
4464;SDS011;2245;48.136;13.428;2022-10-16T01:02:57;3.70;;;1.80;;
4464;SDS011;2245;48.136;13.428;2022-10-16T01:05:49;2.30;;;1.30;;
4464;SDS011;2245;48.136;13.428;2022-10-16T01:08:24;2.10;;;1.27;;
4464;SDS011;2245;48.136;13.428;2022-10-16T01:11:12;2.90;;;1.40;;
4464;SDS011;2245;48.136;13.428;2022-10-16T01:13:52;1.03;;;1.03;;
4464;SDS011;2245;48.136;13.428;2022-10-16T01:19:54;1.67;;;1.47;;
4464;SDS011;2245;48.136;13.428;2022-10-16T01:22:34;2.63;;;1.77;;
4464;SDS011;2245;48.136;13.428;2022-10-16T01:25:08;1.70;;;1.50;;
4464;SDS011;2245;48.136;13.428;2022-10-16T01:27:53;1.33;;;1.20;;
4464;SDS011;2245;48.136;13.428;2022-10-16T01:30:24;1.23;;;1.13;;
4464;SDS011;2245;48.136;13.428;2022-10-16T01:32:55;1.63;;;1.50;;
4464;SDS011;2245;48.136;13.428;2022-10-16T01:35:25;1.43;;;1.30;;
4464;SDS011;2245;48.136;13.428;2022-10-16T01:37:54;2.70;;;1.20;;
4464;SDS011;2245;48.136;13.428;2022-10-16T01:40:26;1.00;;;0.90;;
4464;SDS011;2245;48.136;13.428;2022-10-16T01:43:04;1.13;;;1.10;;
4464;SDS011;2245;48.136;13.428;2022-10-16T01:45:33;2.13;;;1.30;;
4464;SDS011;2245;48.136;13.428;2022-10-16T01:48:21;1.10;;;1.10;;
4464;SDS011;2245;48.136;13.428;2022-10-16T01:50:53;2.90;;;1.10;;
4464;SDS011;2245;48.136;13.428;2022-10-16T01:53:23;0.97;;;0.97;;
4464;SDS011;2245;48.136;13.428;2022-10-16T01:55:53;1.57;;;1.47;;
4464;SDS011;2245;48.136;13.428;2022-10-16T01:58:23;4.33;;;1.30;;
4464;SDS011;2245;48.136;13.428;2022-10-16T02:00:51;3.50;;;1.17;;
4464;SDS011;2245;48.136;13.428;2022-10-16T02:03:18;6.63;;;1.23;;
4464;SDS011;2245;48.136;13.428;2022-10-16T02:05:49;4.23;;;1.30;;
4464;SDS011;2245;48.136;13.428;2022-10-16T02:08:37;12.10;;;3.17;;
4464;SDS011;2245;48.136;13.428;2022-10-16T02:11:14;8.30;;;1.40;;
4464;SDS011;2245;48.136;13.428;2022-10-16T02:13:46;3.97;;;1.17;;
4464;SDS011;2245;48.136;13.428;2022-10-16T02:16:19;1.00;;;0.90;;
4464;SDS011;2245;48.136;13.428;2022-10-16T02:18:54;1.60;;;1.40;;
4464;SDS011;2245;48.136;13.428;2022-10-16T02:21:28;1.07;;;1.07;;
4464;SDS011;2245;48.136;13.428;2022-10-16T02:23:59;1.20;;;1.10;;
4464;SDS011;2245;48.136;13.428;2022-10-16T02:26:37;2.67;;;1.87;;
4464;SDS011;2245;48.136;13.428;2022-10-16T02:29:24;2.40;;;1.13;;
4464;SDS011;2245;48.136;13.428;2022-10-16T02:31:57;8.50;;;1.50;;
4464;SDS011;2245;48.136;13.428;2022-10-16T02:34:31;6.77;;;2.03;;
4464;SDS011;2245;48.136;13.428;2022-10-16T02:37:01;2.53;;;1.50;;
4464;SDS011;2245;48.136;13.428;2022-10-16T02:39:37;3.90;;;1.40;;
4464;SDS011;2245;48.136;13.428;2022-10-16T02:42:09;2.47;;;1.10;;
4464;SDS011;2245;48.136;13.428;2022-10-16T02:44:38;3.07;;;2.07;;
4464;SDS011;2245;48.136;13.428;2022-10-16T02:47:08;6.17;;;2.10;;
4464;SDS011;2245;48.136;13.428;2022-10-16T02:49:37;3.13;;;1.83;;
4464;SDS011;2245;48.136;13.428;2022-10-16T02:52:15;2.87;;;1.70;;
4464;SDS011;2245;48.136;13.428;2022-10-16T02:54:56;4.63;;;1.90;;
4464;SDS011;2245;48.136;13.428;2022-10-16T02:57:23;10.87;;;1.70;;
4464;SDS011;2245;48.136;13.428;2022-10-16T02:59:58;3.33;;;1.33;;
4464;SDS011;2245;48.136;13.428;2022-10-16T03:02:31;2.83;;;1.27;;
4464;SDS011;2245;48.136;13.428;2022-10-16T03:04:58;1.47;;;1.37;;
4464;SDS011;2245;48.136;13.428;2022-10-16T03:07:33;1.80;;;1.40;;
4464;SDS011;2245;48.136;13.428;2022-10-16T03:10:03;4.33;;;1.80;;
4464;SDS011;2245;48.136;13.428;2022-10-16T03:12:35;1.10;;;1.00;;
4464;SDS011;2245;48.136;13.428;2022-10-16T03:15:10;4.37;;;1.57;;
4464;SDS011;2245;48.136;13.428;2022-10-16T03:17:37;4.23;;;1.30;;
4464;SDS011;2245;48.136;13.428;2022-10-16T03:20:09;1.20;;;1.10;;
4464;SDS011;2245;48.136;13.428;2022-10-16T03:22:47;2.60;;;1.23;;
4464;SDS011;2245;48.136;13.428;2022-10-16T03:25:15;1.53;;;1.43;;
4464;SDS011;2245;48.136;13.428;2022-10-16T03:27:48;3.83;;;1.30;;
4464;SDS011;2245;48.136;13.428;2022-10-16T03:30:18;2.07;;;0.97;;
4464;SDS011;2245;48.136;13.428;2022-10-16T03:35:55;1.33;;;0.93;;
4464;SDS011;2245;48.136;13.428;2022-10-16T03:38:41;4.70;;;1.23;;
4464;SDS011;2245;48.136;13.428;2022-10-16T03:41:16;2.10;;;0.90;;
4464;SDS011;2245;48.136;13.428;2022-10-16T03:43:52;2.30;;;1.23;;
4464;SDS011;2245;48.136;13.428;2022-10-16T03:46:30;1.17;;;1.07;;
4464;SDS011;2245;48.136;13.428;2022-10-16T03:49:00;1.73;;;1.20;;
4464;SDS011;2245;48.136;13.428;2022-10-16T03:51:33;3.13;;;1.80;;
4464;SDS011;2245;48.136;13.428;2022-10-16T03:54:10;1.10;;;1.00;;
4464;SDS011;2245;48.136;13.428;2022-10-16T03:56:39;1.30;;;1.20;;
4464;SDS011;2245;48.136;13.428;2022-10-16T03:59:13;1.90;;;1.10;;
4464;SDS011;2245;48.136;13.428;2022-10-16T04:01:50;6.37;;;1.10;;
4464;SDS011;2245;48.136;13.428;2022-10-16T04:04:16;2.60;;;2.40;;
4464;SDS011;2245;48.136;13.428;2022-10-16T04:06:47;0.73;;;0.73;;
4464;SDS011;2245;48.136;13.428;2022-10-16T04:09:17;2.37;;;1.53;;
4464;SDS011;2245;48.136;13.428;2022-10-16T04:11:48;3.40;;;1.37;;
4464;SDS011;2245;48.136;13.428;2022-10-16T04:14:29;6.17;;;1.10;;
4464;SDS011;2245;48.136;13.428;2022-10-16T04:17:00;2.70;;;1.50;;
4464;SDS011;2245;48.136;13.428;2022-10-16T04:19:35;2.93;;;1.80;;
4464;SDS011;2245;48.136;13.428;2022-10-16T04:22:08;2.33;;;1.50;;
4464;SDS011;2245;48.136;13.428;2022-10-16T04:24:41;1.13;;;1.03;;
4464;SDS011;2245;48.136;13.428;2022-10-16T04:27:11;5.23;;;1.60;;
4464;SDS011;2245;48.136;13.428;2022-10-16T04:29:51;3.77;;;1.23;;
4464;SDS011;2245;48.136;13.428;2022-10-16T04:32:19;3.20;;;1.00;;
4464;SDS011;2245;48.136;13.428;2022-10-16T04:34:53;1.93;;;1.20;;
4464;SDS011;2245;48.136;13.428;2022-10-16T04:37:25;2.20;;;0.93;;
4464;SDS011;2245;48.136;13.428;2022-10-16T04:39:56;1.03;;;1.03;;
4464;SDS011;2245;48.136;13.428;2022-10-16T04:42:29;2.20;;;1.40;;
4464;SDS011;2245;48.136;13.428;2022-10-16T04:45:06;1.63;;;1.53;;
4464;SDS011;2245;48.136;13.428;2022-10-16T04:47:46;2.97;;;2.67;;
4464;SDS011;2245;48.136;13.428;2022-10-16T04:50:19;1.87;;;1.77;;
4464;SDS011;2245;48.136;13.428;2022-10-16T04:53:01;2.33;;;1.73;;
4464;SDS011;2245;48.136;13.428;2022-10-16T04:55:32;2.67;;;1.90;;
4464;SDS011;2245;48.136;13.428;2022-10-16T04:58:07;2.83;;;1.13;;
4464;SDS011;2245;48.136;13.428;2022-10-16T05:00:41;1.90;;;1.50;;
4464;SDS011;2245;48.136;13.428;2022-10-16T05:03:19;6.13;;;1.90;;
4464;SDS011;2245;48.136;13.428;2022-10-16T05:05:52;2.00;;;1.33;;
4464;SDS011;2245;48.136;13.428;2022-10-16T05:08:28;1.53;;;1.43;;
4464;SDS011;2245;48.136;13.428;2022-10-16T05:11:00;4.40;;;1.37;;
4464;SDS011;2245;48.136;13.428;2022-10-16T05:13:29;4.20;;;1.10;;
4464;SDS011;2245;48.136;13.428;2022-10-16T05:15:57;2.60;;;1.37;;
4464;SDS011;2245;48.136;13.428;2022-10-16T05:18:25;1.87;;;1.30;;
4464;SDS011;2245;48.136;13.428;2022-10-16T05:20:55;7.00;;;1.13;;
4464;SDS011;2245;48.136;13.428;2022-10-16T05:23:27;2.90;;;1.07;;
4464;SDS011;2245;48.136;13.428;2022-10-16T05:26:01;3.30;;;3.10;;
4464;SDS011;2245;48.136;13.428;2022-10-16T05:28:30;5.13;;;1.83;;
4464;SDS011;2245;48.136;13.428;2022-10-16T05:31:09;5.87;;;2.67;;
4464;SDS011;2245;48.136;13.428;2022-10-16T05:33:42;1.83;;;1.67;;
4464;SDS011;2245;48.136;13.428;2022-10-16T05:36:12;7.97;;;6.10;;
4464;SDS011;2245;48.136;13.428;2022-10-16T05:38:50;4.30;;;3.77;;
4464;SDS011;2245;48.136;13.428;2022-10-16T05:41:19;2.83;;;2.17;;
4464;SDS011;2245;48.136;13.428;2022-10-16T05:43:53;3.90;;;2.43;;
4464;SDS011;2245;48.136;13.428;2022-10-16T05:46:29;6.73;;;3.00;;
4464;SDS011;2245;48.136;13.428;2022-10-16T05:49:08;2.30;;;2.10;;
4464;SDS011;2245;48.136;13.428;2022-10-16T05:51:38;2.80;;;2.60;;
4464;SDS011;2245;48.136;13.428;2022-10-16T05:54:06;10.23;;;4.40;;
4464;SDS011;2245;48.136;13.428;2022-10-16T05:56:35;10.83;;;3.47;;
4464;SDS011;2245;48.136;13.428;2022-10-16T05:59:08;3.77;;;2.90;;
4464;SDS011;2245;48.136;13.428;2022-10-16T06:01:35;3.67;;;3.00;;
4464;SDS011;2245;48.136;13.428;2022-10-16T06:04:04;5.43;;;2.80;;
4464;SDS011;2245;48.136;13.428;2022-10-16T06:06:35;4.70;;;3.10;;
4464;SDS011;2245;48.136;13.428;2022-10-16T06:09:02;9.20;;;2.93;;
4464;SDS011;2245;48.136;13.428;2022-10-16T06:11:30;3.53;;;3.00;;
4464;SDS011;2245;48.136;13.428;2022-10-16T06:13:58;3.53;;;3.13;;
4464;SDS011;2245;48.136;13.428;2022-10-16T06:16:31;3.13;;;2.80;;
4464;SDS011;2245;48.136;13.428;2022-10-16T06:19:13;3.47;;;3.10;;
4464;SDS011;2245;48.136;13.428;2022-10-16T06:21:42;4.90;;;2.90;;
4464;SDS011;2245;48.136;13.428;2022-10-16T06:24:13;4.00;;;3.07;;
4464;SDS011;2245;48.136;13.428;2022-10-16T06:26:45;3.73;;;2.50;;
4464;SDS011;2245;48.136;13.428;2022-10-16T06:29:17;7.30;;;3.10;;
4464;SDS011;2245;48.136;13.428;2022-10-16T06:31:46;4.67;;;4.13;;
4464;SDS011;2245;48.136;13.428;2022-10-16T06:34:13;5.57;;;4.03;;
4464;SDS011;2245;48.136;13.428;2022-10-16T06:36:44;9.43;;;3.93;;
4464;SDS011;2245;48.136;13.428;2022-10-16T06:39:21;6.13;;;3.87;;
4464;SDS011;2245;48.136;13.428;2022-10-16T06:41:48;24.13;;;13.40;;
4464;SDS011;2245;48.136;13.428;2022-10-16T06:44:15;29.27;;;18.47;;
4464;SDS011;2245;48.136;13.428;2022-10-16T06:46:43;22.97;;;14.83;;
4464;SDS011;2245;48.136;13.428;2022-10-16T06:49:10;13.87;;;7.50;;
4464;SDS011;2245;48.136;13.428;2022-10-16T06:51:41;5.80;;;4.53;;
4464;SDS011;2245;48.136;13.428;2022-10-16T06:54:11;5.90;;;4.33;;
4464;SDS011;2245;48.136;13.428;2022-10-16T06:56:44;8.03;;;4.57;;
4464;SDS011;2245;48.136;13.428;2022-10-16T06:59:22;6.37;;;3.43;;
4464;SDS011;2245;48.136;13.428;2022-10-16T07:01:49;4.90;;;4.40;;
4464;SDS011;2245;48.136;13.428;2022-10-16T07:04:19;5.67;;;4.37;;
4464;SDS011;2245;48.136;13.428;2022-10-16T07:06:52;5.00;;;3.93;;
4464;SDS011;2245;48.136;13.428;2022-10-16T07:09:18;3.03;;;2.83;;
4464;SDS011;2245;48.136;13.428;2022-10-16T07:11:47;2.47;;;2.33;;
4464;SDS011;2245;48.136;13.428;2022-10-16T07:14:15;8.80;;;2.20;;
4464;SDS011;2245;48.136;13.428;2022-10-16T07:16:46;1.67;;;1.57;;
4464;SDS011;2245;48.136;13.428;2022-10-16T07:19:21;2.10;;;1.63;;
4464;SDS011;2245;48.136;13.428;2022-10-16T07:21:52;5.40;;;1.50;;
4464;SDS011;2245;48.136;13.428;2022-10-16T07:24:22;1.97;;;1.30;;
4464;SDS011;2245;48.136;13.428;2022-10-16T07:27:02;3.90;;;2.53;;
4464;SDS011;2245;48.136;13.428;2022-10-16T07:29:29;14.33;;;2.20;;
4464;SDS011;2245;48.136;13.428;2022-10-16T07:31:59;4.40;;;1.77;;
4464;SDS011;2245;48.136;13.428;2022-10-16T07:34:28;4.10;;;1.70;;
4464;SDS011;2245;48.136;13.428;2022-10-16T07:36:57;2.00;;;1.57;;
4464;SDS011;2245;48.136;13.428;2022-10-16T07:39:26;1.63;;;1.53;;
4464;SDS011;2245;48.136;13.428;2022-10-16T07:42:01;2.53;;;1.70;;
4464;SDS011;2245;48.136;13.428;2022-10-16T07:44:39;1.53;;;1.40;;
4464;SDS011;2245;48.136;13.428;2022-10-16T07:47:06;2.37;;;2.17;;
4464;SDS011;2245;48.136;13.428;2022-10-16T07:49:33;2.03;;;1.83;;
4464;SDS011;2245;48.136;13.428;2022-10-16T07:52:02;1.73;;;1.63;;
4464;SDS011;2245;48.136;13.428;2022-10-16T07:54:29;1.10;;;1.00;;
4464;SDS011;2245;48.136;13.428;2022-10-16T07:56:59;3.33;;;1.10;;
4464;SDS011;2245;48.136;13.428;2022-10-16T07:59:31;2.00;;;1.10;;
4464;SDS011;2245;48.136;13.428;2022-10-16T08:01:58;1.13;;;0.97;;
4464;SDS011;2245;48.136;13.428;2022-10-16T08:04:31;1.43;;;1.30;;
4464;SDS011;2245;48.136;13.428;2022-10-16T08:06:58;2.90;;;1.57;;
4464;SDS011;2245;48.136;13.428;2022-10-16T08:09:27;1.27;;;0.90;;
4464;SDS011;2245;48.136;13.428;2022-10-16T08:11:58;1.23;;;1.23;;
4464;SDS011;2245;48.136;13.428;2022-10-16T08:14:32;0.90;;;0.90;;
4464;SDS011;2245;48.136;13.428;2022-10-16T08:16:58;1.37;;;0.90;;
4464;SDS011;2245;48.136;13.428;2022-10-16T08:19:27;1.57;;;0.90;;
4464;SDS011;2245;48.136;13.428;2022-10-16T08:21:54;3.03;;;1.13;;
4464;SDS011;2245;48.136;13.428;2022-10-16T08:24:21;1.20;;;1.10;;
4464;SDS011;2245;48.136;13.428;2022-10-16T08:26:51;3.50;;;1.33;;
4464;SDS011;2245;48.136;13.428;2022-10-16T08:29:32;7.57;;;1.30;;
4464;SDS011;2245;48.136;13.428;2022-10-16T08:32:20;1.90;;;1.10;;
4464;SDS011;2245;48.136;13.428;2022-10-16T08:35:09;2.30;;;1.07;;
4464;SDS011;2245;48.136;13.428;2022-10-16T08:37:37;0.77;;;0.77;;
4464;SDS011;2245;48.136;13.428;2022-10-16T08:40:16;1.63;;;1.00;;
4464;SDS011;2245;48.136;13.428;2022-10-16T08:49:30;1.43;;;1.33;;
4464;SDS011;2245;48.136;13.428;2022-10-16T08:52:00;4.67;;;0.80;;
4464;SDS011;2245;48.136;13.428;2022-10-16T08:54:34;0.87;;;0.87;;
4464;SDS011;2245;48.136;13.428;2022-10-16T08:57:15;1.10;;;1.10;;
4464;SDS011;2245;48.136;13.428;2022-10-16T09:00:00;6.83;;;2.27;;
4464;SDS011;2245;48.136;13.428;2022-10-16T09:02:52;1.23;;;1.17;;
4464;SDS011;2245;48.136;13.428;2022-10-16T09:05:56;2.77;;;0.90;;
4464;SDS011;2245;48.136;13.428;2022-10-16T09:08:34;8.37;;;2.57;;
4464;SDS011;2245;48.136;13.428;2022-10-16T09:11:09;2.03;;;0.80;;
4464;SDS011;2245;48.136;13.428;2022-10-16T09:13:51;1.10;;;1.00;;
4464;SDS011;2245;48.136;13.428;2022-10-16T09:16:40;0.97;;;0.70;;
4464;SDS011;2245;48.136;13.428;2022-10-16T09:19:24;2.20;;;1.27;;
4464;SDS011;2245;48.136;13.428;2022-10-16T09:22:04;0.80;;;0.80;;
4464;SDS011;2245;48.136;13.428;2022-10-16T09:24:39;2.93;;;0.90;;
4464;SDS011;2245;48.136;13.428;2022-10-16T09:27:10;1.00;;;1.00;;
4464;SDS011;2245;48.136;13.428;2022-10-16T09:29:42;2.07;;;1.20;;
4464;SDS011;2245;48.136;13.428;2022-10-16T09:32:15;2.70;;;1.13;;
4464;SDS011;2245;48.136;13.428;2022-10-16T09:34:53;1.10;;;1.10;;
4464;SDS011;2245;48.136;13.428;2022-10-16T09:37:27;0.80;;;0.80;;
4464;SDS011;2245;48.136;13.428;2022-10-16T09:40:04;0.67;;;0.67;;
4464;SDS011;2245;48.136;13.428;2022-10-16T09:42:37;1.60;;;1.50;;
4464;SDS011;2245;48.136;13.428;2022-10-16T09:45:05;7.50;;;1.33;;
4464;SDS011;2245;48.136;13.428;2022-10-16T09:47:50;1.23;;;1.13;;
4464;SDS011;2245;48.136;13.428;2022-10-16T09:50:21;2.27;;;1.20;;
4464;SDS011;2245;48.136;13.428;2022-10-16T09:53:10;6.17;;;1.10;;
4464;SDS011;2245;48.136;13.428;2022-10-16T09:55:54;2.00;;;1.10;;
4464;SDS011;2245;48.136;13.428;2022-10-16T09:58:22;0.90;;;0.90;;
4464;SDS011;2245;48.136;13.428;2022-10-16T10:01:11;2.47;;;1.00;;
4464;SDS011;2245;48.136;13.428;2022-10-16T10:03:44;0.90;;;0.90;;
4464;SDS011;2245;48.136;13.428;2022-10-16T10:06:26;4.27;;;0.90;;
4464;SDS011;2245;48.136;13.428;2022-10-16T10:09:05;6.23;;;1.43;;
4464;SDS011;2245;48.136;13.428;2022-10-16T10:14:36;1.07;;;1.07;;
4464;SDS011;2245;48.136;13.428;2022-10-16T10:17:18;4.50;;;1.00;;
4464;SDS011;2245;48.136;13.428;2022-10-16T10:19:53;1.33;;;1.23;;
4464;SDS011;2245;48.136;13.428;2022-10-16T10:22:28;2.00;;;1.10;;
4464;SDS011;2245;48.136;13.428;2022-10-16T10:25:14;2.07;;;0.93;;
4464;SDS011;2245;48.136;13.428;2022-10-16T10:28:08;1.13;;;1.13;;
4464;SDS011;2245;48.136;13.428;2022-10-16T10:31:06;3.33;;;1.30;;
4464;SDS011;2245;48.136;13.428;2022-10-16T10:33:57;1.00;;;0.97;;
4464;SDS011;2245;48.136;13.428;2022-10-16T10:36:46;3.33;;;1.00;;
4464;SDS011;2245;48.136;13.428;2022-10-16T10:39:24;0.97;;;0.93;;
4464;SDS011;2245;48.136;13.428;2022-10-16T10:42:02;1.10;;;1.10;;
4464;SDS011;2245;48.136;13.428;2022-10-16T10:45:03;1.10;;;1.10;;
4464;SDS011;2245;48.136;13.428;2022-10-16T10:47:44;1.03;;;0.93;;
4464;SDS011;2245;48.136;13.428;2022-10-16T10:50:32;2.73;;;1.20;;
4464;SDS011;2245;48.136;13.428;2022-10-16T10:53:09;4.60;;;0.80;;
4464;SDS011;2245;48.136;13.428;2022-10-16T10:55:51;2.23;;;1.00;;
4464;SDS011;2245;48.136;13.428;2022-10-16T10:58:35;1.53;;;1.13;;
4464;SDS011;2245;48.136;13.428;2022-10-16T11:01:26;0.90;;;0.90;;
4464;SDS011;2245;48.136;13.428;2022-10-16T11:04:01;1.23;;;1.07;;
4464;SDS011;2245;48.136;13.428;2022-10-16T11:07:07;1.23;;;1.13;;
4464;SDS011;2245;48.136;13.428;2022-10-16T11:09:38;1.10;;;1.10;;
4464;SDS011;2245;48.136;13.428;2022-10-16T11:12:16;3.00;;;1.60;;
4464;SDS011;2245;48.136;13.428;2022-10-16T11:14:53;2.30;;;1.20;;
4464;SDS011;2245;48.136;13.428;2022-10-16T11:17:25;1.63;;;1.53;;
4464;SDS011;2245;48.136;13.428;2022-10-16T11:19:58;14.50;;;1.67;;
4464;SDS011;2245;48.136;13.428;2022-10-16T11:22:35;4.53;;;1.83;;
4464;SDS011;2245;48.136;13.428;2022-10-16T11:25:11;0.87;;;0.87;;
4464;SDS011;2245;48.136;13.428;2022-10-16T11:27:43;1.13;;;1.03;;
4464;SDS011;2245;48.136;13.428;2022-10-16T11:30:16;0.73;;;0.73;;
4464;SDS011;2245;48.136;13.428;2022-10-16T11:32:56;1.37;;;1.07;;
4464;SDS011;2245;48.136;13.428;2022-10-16T11:35:39;0.80;;;0.80;;
4464;SDS011;2245;48.136;13.428;2022-10-16T11:38:12;1.73;;;0.90;;
4464;SDS011;2245;48.136;13.428;2022-10-16T11:40:58;2.63;;;0.90;;
4464;SDS011;2245;48.136;13.428;2022-10-16T11:43:38;4.53;;;0.90;;
4464;SDS011;2245;48.136;13.428;2022-10-16T11:46:19;0.90;;;0.90;;
4464;SDS011;2245;48.136;13.428;2022-10-16T11:48:51;1.50;;;1.40;;
4464;SDS011;2245;48.136;13.428;2022-10-16T11:51:26;2.60;;;1.30;;
4464;SDS011;2245;48.136;13.428;2022-10-16T11:54:03;0.93;;;0.93;;
4464;SDS011;2245;48.136;13.428;2022-10-16T11:56:46;0.90;;;0.90;;
4464;SDS011;2245;48.136;13.428;2022-10-16T11:59:18;1.70;;;1.00;;
4464;SDS011;2245;48.136;13.428;2022-10-16T12:05:05;1.73;;;1.57;;
4464;SDS011;2245;48.136;13.428;2022-10-16T12:07:46;0.73;;;0.73;;
4464;SDS011;2245;48.136;13.428;2022-10-16T12:10:28;7.67;;;1.10;;
4464;SDS011;2245;48.136;13.428;2022-10-16T12:13:25;3.03;;;1.00;;
4464;SDS011;2245;48.136;13.428;2022-10-16T12:16:19;0.90;;;0.90;;
4464;SDS011;2245;48.136;13.428;2022-10-16T12:19:02;0.90;;;0.90;;
4464;SDS011;2245;48.136;13.428;2022-10-16T12:21:42;2.47;;;1.10;;
4464;SDS011;2245;48.136;13.428;2022-10-16T12:24:20;2.57;;;1.07;;
4464;SDS011;2245;48.136;13.428;2022-10-16T12:26:48;18.10;;;2.37;;
4464;SDS011;2245;48.136;13.428;2022-10-16T12:29:26;1.80;;;1.70;;
4464;SDS011;2245;48.136;13.428;2022-10-16T12:32:27;8.50;;;1.40;;
4464;SDS011;2245;48.136;13.428;2022-10-16T12:34:56;2.30;;;1.30;;
4464;SDS011;2245;48.136;13.428;2022-10-16T12:37:43;0.90;;;0.90;;
4464;SDS011;2245;48.136;13.428;2022-10-16T12:40:29;1.50;;;1.40;;
4464;SDS011;2245;48.136;13.428;2022-10-16T12:43:10;0.80;;;0.80;;
4464;SDS011;2245;48.136;13.428;2022-10-16T12:45:43;1.33;;;1.13;;
4464;SDS011;2245;48.136;13.428;2022-10-16T12:48:18;0.77;;;0.77;;
4464;SDS011;2245;48.136;13.428;2022-10-16T12:50:56;1.27;;;1.27;;
4464;SDS011;2245;48.136;13.428;2022-10-16T12:54:01;2.20;;;1.30;;
4464;SDS011;2245;48.136;13.428;2022-10-16T12:56:38;2.63;;;0.87;;
4464;SDS011;2245;48.136;13.428;2022-10-16T12:59:23;1.50;;;0.90;;
4464;SDS011;2245;48.136;13.428;2022-10-16T13:02:07;6.10;;;1.07;;
4464;SDS011;2245;48.136;13.428;2022-10-16T13:04:58;1.83;;;1.33;;
4464;SDS011;2245;48.136;13.428;2022-10-16T13:07:41;2.07;;;1.23;;
4464;SDS011;2245;48.136;13.428;2022-10-16T13:10:19;1.23;;;1.13;;
4464;SDS011;2245;48.136;13.428;2022-10-16T13:13:15;1.50;;;1.13;;
4464;SDS011;2245;48.136;13.428;2022-10-16T13:16:04;2.00;;;1.03;;
4464;SDS011;2245;48.136;13.428;2022-10-16T13:26:05;1.70;;;1.07;;
4464;SDS011;2245;48.136;13.428;2022-10-16T13:28:40;2.47;;;1.10;;
4464;SDS011;2245;48.136;13.428;2022-10-16T13:31:18;1.00;;;1.00;;
4464;SDS011;2245;48.136;13.428;2022-10-16T13:33:47;1.37;;;0.83;;
4464;SDS011;2245;48.136;13.428;2022-10-16T13:36:24;1.80;;;0.90;;
4464;SDS011;2245;48.136;13.428;2022-10-16T13:39:12;1.43;;;1.00;;
4464;SDS011;2245;48.136;13.428;2022-10-16T13:41:59;0.77;;;0.77;;
4464;SDS011;2245;48.136;13.428;2022-10-16T13:44:43;0.97;;;0.97;;
4464;SDS011;2245;48.136;13.428;2022-10-16T13:47:17;0.97;;;0.97;;
4464;SDS011;2245;48.136;13.428;2022-10-16T13:49:59;0.70;;;0.70;;
4464;SDS011;2245;48.136;13.428;2022-10-16T13:52:34;1.43;;;0.93;;
4464;SDS011;2245;48.136;13.428;2022-10-16T13:55:10;2.07;;;1.10;;
4464;SDS011;2245;48.136;13.428;2022-10-16T13:58:12;2.60;;;1.20;;
4464;SDS011;2245;48.136;13.428;2022-10-16T14:00:52;1.03;;;0.93;;
4464;SDS011;2245;48.136;13.428;2022-10-16T14:03:20;3.40;;;0.90;;
4464;SDS011;2245;48.136;13.428;2022-10-16T14:06:03;1.03;;;0.90;;
4464;SDS011;2245;48.136;13.428;2022-10-16T14:08:41;0.90;;;0.90;;
4464;SDS011;2245;48.136;13.428;2022-10-16T14:11:20;0.90;;;0.90;;
4464;SDS011;2245;48.136;13.428;2022-10-16T14:13:50;1.23;;;1.13;;
4464;SDS011;2245;48.136;13.428;2022-10-16T14:16:18;0.70;;;0.70;;
4464;SDS011;2245;48.136;13.428;2022-10-16T14:18:55;0.90;;;0.90;;
4464;SDS011;2245;48.136;13.428;2022-10-16T14:21:26;2.70;;;1.10;;
4464;SDS011;2245;48.136;13.428;2022-10-16T14:23:53;1.03;;;0.93;;
4464;SDS011;2245;48.136;13.428;2022-10-16T14:26:24;3.27;;;1.60;;
4464;SDS011;2245;48.136;13.428;2022-10-16T14:29:11;1.37;;;1.27;;
4464;SDS011;2245;48.136;13.428;2022-10-16T14:31:53;1.00;;;1.00;;
4464;SDS011;2245;48.136;13.428;2022-10-16T14:34:28;0.80;;;0.80;;
4464;SDS011;2245;48.136;13.428;2022-10-16T14:39:52;1.80;;;0.90;;
4464;SDS011;2245;48.136;13.428;2022-10-16T14:42:27;2.73;;;1.03;;
4464;SDS011;2245;48.136;13.428;2022-10-16T14:45:07;8.70;;;1.50;;
4464;SDS011;2245;48.136;13.428;2022-10-16T14:47:37;1.53;;;1.17;;
4464;SDS011;2245;48.136;13.428;2022-10-16T14:50:14;1.20;;;1.10;;
4464;SDS011;2245;48.136;13.428;2022-10-16T14:52:48;1.47;;;1.33;;
4464;SDS011;2245;48.136;13.428;2022-10-16T14:55:17;1.00;;;1.00;;
4464;SDS011;2245;48.136;13.428;2022-10-16T14:57:44;5.50;;;1.20;;
4464;SDS011;2245;48.136;13.428;2022-10-16T15:00:22;2.23;;;1.03;;
4464;SDS011;2245;48.136;13.428;2022-10-16T15:02:55;2.40;;;1.27;;
4464;SDS011;2245;48.136;13.428;2022-10-16T15:05:46;1.23;;;1.10;;
4464;SDS011;2245;48.136;13.428;2022-10-16T15:08:22;2.63;;;1.70;;
4464;SDS011;2245;48.136;13.428;2022-10-16T15:10:53;1.80;;;1.10;;
4464;SDS011;2245;48.136;13.428;2022-10-16T15:13:20;1.53;;;1.40;;
4464;SDS011;2245;48.136;13.428;2022-10-16T15:15:48;2.30;;;1.27;;
4464;SDS011;2245;48.136;13.428;2022-10-16T15:18:15;1.50;;;1.33;;
4464;SDS011;2245;48.136;13.428;2022-10-16T15:20:45;4.70;;;1.23;;
4464;SDS011;2245;48.136;13.428;2022-10-16T15:23:16;1.90;;;1.77;;
4464;SDS011;2245;48.136;13.428;2022-10-16T15:25:45;2.80;;;1.40;;
4464;SDS011;2245;48.136;13.428;2022-10-16T15:28:16;4.17;;;1.60;;
4464;SDS011;2245;48.136;13.428;2022-10-16T15:30:49;2.10;;;1.13;;
4464;SDS011;2245;48.136;13.428;2022-10-16T15:33:18;2.50;;;1.57;;
4464;SDS011;2245;48.136;13.428;2022-10-16T15:35:52;1.90;;;1.43;;
4464;SDS011;2245;48.136;13.428;2022-10-16T15:38:25;2.73;;;1.80;;
4464;SDS011;2245;48.136;13.428;2022-10-16T15:40:53;4.57;;;1.57;;
4464;SDS011;2245;48.136;13.428;2022-10-16T15:43:29;1.70;;;1.27;;
4464;SDS011;2245;48.136;13.428;2022-10-16T15:46:04;7.13;;;1.57;;
4464;SDS011;2245;48.136;13.428;2022-10-16T15:48:36;1.63;;;1.30;;
4464;SDS011;2245;48.136;13.428;2022-10-16T15:51:08;1.63;;;1.30;;
4464;SDS011;2245;48.136;13.428;2022-10-16T15:53:37;2.03;;;1.73;;
4464;SDS011;2245;48.136;13.428;2022-10-16T15:56:13;2.20;;;2.00;;
4464;SDS011;2245;48.136;13.428;2022-10-16T15:58:46;11.77;;;10.33;;
4464;SDS011;2245;48.136;13.428;2022-10-16T16:01:14;16.60;;;12.60;;
4464;SDS011;2245;48.136;13.428;2022-10-16T16:03:45;4.23;;;3.80;;
4464;SDS011;2245;48.136;13.428;2022-10-16T16:06:19;8.03;;;6.47;;
4464;SDS011;2245;48.136;13.428;2022-10-16T16:08:53;4.40;;;4.00;;
4464;SDS011;2245;48.136;13.428;2022-10-16T16:14:45;3.60;;;3.30;;
4464;SDS011;2245;48.136;13.428;2022-10-16T16:17:18;7.70;;;2.50;;
4464;SDS011;2245;48.136;13.428;2022-10-16T16:19:49;5.73;;;3.67;;
4464;SDS011;2245;48.136;13.428;2022-10-16T16:22:23;9.07;;;5.70;;